createdAt,value
2017-12-20T00:00:24.842Z,1005.48
2017-12-20T00:01:24.999Z,1005.57
2017-12-20T00:03:18.921Z,1005.57
2017-12-20T00:04:18.820Z,1005.52
2017-12-20T00:06:11.774Z,1005.46
2017-12-20T00:07:10.922Z,1005.45
2017-12-20T00:09:04.493Z,1005.40
2017-12-20T00:10:03.701Z,1005.39
2017-12-20T00:11:57.207Z,1005.35
2017-12-20T00:12:56.899Z,1005.36
2017-12-20T00:14:48.272Z,1005.35
2017-12-20T00:15:48.743Z,1005.36
2017-12-20T00:17:42.393Z,1005.31
2017-12-20T00:18:42.552Z,1005.36
2017-12-20T00:20:34.773Z,1005.37
2017-12-20T00:21:35.718Z,1005.40
2017-12-20T00:23:32.437Z,1005.40
2017-12-20T00:24:30.610Z,1005.39
2017-12-20T00:26:22.905Z,1005.43
2017-12-20T00:27:20.619Z,1005.45
2017-12-20T00:29:14.725Z,1005.43
2017-12-20T00:30:14.788Z,1005.45
2017-12-20T00:32:08.384Z,1005.43
2017-12-20T00:33:07.283Z,1005.42
2017-12-20T00:34:59.769Z,1005.43
2017-12-20T00:35:59.892Z,1005.44
2017-12-20T00:37:54.600Z,1005.42
2017-12-20T00:38:53.824Z,1005.42
2017-12-20T00:40:46.555Z,1005.45
2017-12-20T00:41:47.500Z,1005.52
2017-12-20T00:43:39.345Z,1005.46
2017-12-20T00:44:40.307Z,1005.49
2017-12-20T00:46:33.897Z,1005.52
2017-12-20T00:47:34.424Z,1005.55
2017-12-20T00:49:26.592Z,1005.54
2017-12-20T00:50:26.144Z,1005.57
2017-12-20T00:52:20.279Z,1005.56
2017-12-20T00:53:20.313Z,1005.54
2017-12-20T00:55:13.412Z,1005.60
2017-12-20T00:56:12.725Z,1005.60
2017-12-20T00:58:07.163Z,1005.65
2017-12-20T00:59:05.880Z,1005.68
2017-12-20T01:01:00.653Z,1005.65
2017-12-20T01:01:59.331Z,1005.73
2017-12-20T01:03:52.457Z,1005.66
2017-12-20T01:06:14.171Z,1005.70
2017-12-20T01:07:14.791Z,1005.72
2017-12-20T01:09:09.641Z,1005.71
2017-12-20T01:10:08.469Z,1005.68
2017-12-20T01:12:01.363Z,1005.69
2017-12-20T01:13:01.990Z,1005.68
2017-12-20T01:14:54.028Z,1005.62
2017-12-20T01:15:54.499Z,1005.59
2017-12-20T01:17:46.417Z,1005.60
2017-12-20T01:18:46.414Z,1005.60
2017-12-20T01:20:40.539Z,1005.68
2017-12-20T01:21:40.605Z,1005.68
2017-12-20T01:23:34.230Z,1005.70
2017-12-20T01:24:35.429Z,1005.74
2017-12-20T01:26:30.172Z,1005.71
2017-12-20T01:27:27.234Z,1005.73
2017-12-20T01:29:20.394Z,1005.72
2017-12-20T01:30:18.872Z,1005.75
2017-12-20T01:32:14.759Z,1005.76
2017-12-20T01:33:12.005Z,1005.75
2017-12-20T01:35:04.992Z,1005.76
2017-12-20T01:36:05.531Z,1005.74
2017-12-20T01:37:58.525Z,1005.73
2017-12-20T01:38:57.569Z,1005.71
2017-12-20T01:40:51.277Z,1005.70
2017-12-20T01:41:52.060Z,1005.70
2017-12-20T01:43:44.146Z,1005.70
2017-12-20T01:44:45.550Z,1005.71
2017-12-20T01:46:37.918Z,1005.67
2017-12-20T01:47:37.735Z,1005.66
2017-12-20T01:49:32.006Z,1005.72
2017-12-20T01:50:31.967Z,1005.68
2017-12-20T01:52:25.472Z,1005.73
2017-12-20T01:53:25.768Z,1005.72
2017-12-20T01:55:19.062Z,1005.74
2017-12-20T01:56:17.820Z,1005.73
2017-12-20T01:58:13.304Z,1005.74
2017-12-20T01:59:13.144Z,1005.74
2017-12-20T02:01:07.623Z,1005.76
2017-12-20T02:02:07.295Z,1005.73
2017-12-20T02:04:01.181Z,1005.72
2017-12-20T02:05:01.413Z,1005.72
2017-12-20T02:06:55.606Z,1005.70
2017-12-20T02:07:55.075Z,1005.65
2017-12-20T02:09:50.585Z,1005.59
2017-12-20T02:10:48.943Z,1005.61
2017-12-20T02:12:43.630Z,1005.55
2017-12-20T02:13:43.190Z,1005.53
2017-12-20T02:15:36.382Z,1005.50
2017-12-20T02:16:36.545Z,1005.47
2017-12-20T02:18:29.195Z,1005.49
2017-12-20T02:19:28.906Z,1005.52
2017-12-20T02:21:22.960Z,1005.52
2017-12-20T02:22:21.151Z,1005.50
2017-12-20T02:24:14.265Z,1005.46
2017-12-20T02:25:14.410Z,1005.49
2017-12-20T02:27:09.108Z,1005.45
2017-12-20T02:28:07.153Z,1005.49
2017-12-20T02:30:02.348Z,1005.45
2017-12-20T02:31:01.433Z,1005.51
2017-12-20T02:32:57.528Z,1005.49
2017-12-20T02:33:54.080Z,1005.48
2017-12-20T02:35:48.649Z,1005.49
2017-12-20T02:36:47.168Z,1005.48
2017-12-20T02:38:38.795Z,1005.47
2017-12-20T02:39:40.009Z,1005.46
2017-12-20T02:41:33.435Z,1005.43
2017-12-20T02:42:31.438Z,1005.43
2017-12-20T02:44:24.769Z,1005.39
2017-12-20T02:45:25.127Z,1005.41
2017-12-20T02:47:17.992Z,1005.36
2017-12-20T02:48:17.818Z,1005.32
2017-12-20T02:50:12.535Z,1005.33
2017-12-20T02:51:12.650Z,1005.26
2017-12-20T02:53:04.437Z,1005.29
2017-12-20T02:54:04.860Z,1005.31
2017-12-20T02:55:58.044Z,1005.26
2017-12-20T02:56:58.335Z,1005.26
2017-12-20T02:58:51.503Z,1005.27
2017-12-20T02:59:51.517Z,1005.26
2017-12-20T03:01:44.408Z,1005.26
2017-12-20T03:02:43.186Z,1005.26
2017-12-20T03:04:37.108Z,1005.30
2017-12-20T03:05:37.932Z,1005.30
2017-12-20T03:07:31.544Z,1005.32
2017-12-20T03:08:31.204Z,1005.31
2017-12-20T03:10:25.398Z,1005.35
2017-12-20T03:11:24.656Z,1005.37
2017-12-20T03:13:17.640Z,1005.35
2017-12-20T03:14:18.116Z,1005.37
2017-12-20T03:16:11.800Z,1005.32
2017-12-20T03:17:12.001Z,1005.33
2017-12-20T03:19:05.692Z,1005.36
2017-12-20T03:20:04.630Z,1005.33
2017-12-20T03:21:58.860Z,1005.35
2017-12-20T03:22:59.123Z,1005.35
2017-12-20T03:24:55.436Z,1005.32
2017-12-20T03:25:53.930Z,1005.31
2017-12-20T03:27:45.596Z,1005.33
2017-12-20T03:28:46.170Z,1005.32
2017-12-20T03:30:40.123Z,1005.33
2017-12-20T03:31:40.267Z,1005.34
2017-12-20T03:33:32.553Z,1005.31
2017-12-20T03:34:34.155Z,1005.31
2017-12-20T03:36:24.681Z,1005.34
2017-12-20T03:37:25.840Z,1005.34
2017-12-20T03:39:17.990Z,1005.29
2017-12-20T03:40:18.626Z,1005.29
2017-12-20T03:42:10.595Z,1005.33
2017-12-20T03:48:14.620Z,1005.41
2017-12-20T03:49:15.640Z,1005.40
2017-12-20T03:51:09.069Z,1005.45
2017-12-20T03:52:08.334Z,1005.39
2017-12-20T03:54:00.867Z,1005.44
2017-12-20T03:54:59.993Z,1005.46
2017-12-20T03:56:53.835Z,1005.45
2017-12-20T03:57:54.997Z,1005.45
2017-12-20T03:59:46.640Z,1005.46
2017-12-20T04:00:47.535Z,1005.45
2017-12-20T04:02:40.409Z,1005.44
2017-12-20T04:03:40.363Z,1005.43
2017-12-20T04:05:32.647Z,1005.40
2017-12-20T04:06:33.756Z,1005.38
2017-12-20T04:08:25.440Z,1005.41
2017-12-20T04:09:27.012Z,1005.42
2017-12-20T04:11:19.834Z,1005.44
2017-12-20T04:12:19.797Z,1005.44
2017-12-20T04:14:12.086Z,1005.45
2017-12-20T04:15:10.869Z,1005.42
2017-12-20T04:17:04.805Z,1005.45
2017-12-20T04:18:03.879Z,1005.42
2017-12-20T04:19:57.723Z,1005.42
2017-12-20T04:20:56.713Z,1005.38
2017-12-20T04:22:51.329Z,1005.44
2017-12-20T04:23:52.329Z,1005.45
2017-12-20T04:25:45.631Z,1005.48
2017-12-20T04:26:44.763Z,1005.50
2017-12-20T04:28:41.927Z,1005.49
2017-12-20T04:29:38.602Z,1005.48
2017-12-20T04:31:31.986Z,1005.38
2017-12-20T04:32:34.060Z,1005.42
2017-12-20T04:34:26.944Z,1005.44
2017-12-20T04:35:25.007Z,1005.45
2017-12-20T04:37:18.415Z,1005.39
2017-12-20T04:38:21.293Z,1005.40
2017-12-20T04:40:12.172Z,1005.40
2017-12-20T04:41:12.602Z,1005.47
2017-12-20T04:43:06.233Z,1005.46
2017-12-20T04:44:05.932Z,1005.47
2017-12-20T04:45:59.220Z,1005.45
2017-12-20T04:46:58.921Z,1005.48
2017-12-20T04:48:57.031Z,1005.48
2017-12-20T04:49:58.021Z,1005.45
2017-12-20T04:51:51.684Z,1005.47
2017-12-20T04:52:52.758Z,1005.43
2017-12-20T04:54:44.911Z,1005.41
2017-12-20T04:55:45.419Z,1005.38
2017-12-20T04:57:37.669Z,1005.42
2017-12-20T04:58:37.855Z,1005.43
2017-12-20T05:00:30.181Z,1005.34
2017-12-20T05:01:31.004Z,1005.32
2017-12-20T05:03:23.974Z,1005.38
2017-12-20T05:04:24.383Z,1005.35
2017-12-20T05:06:19.044Z,1005.44
2017-12-20T05:07:20.091Z,1005.46
2017-12-20T05:09:13.524Z,1005.42
2017-12-20T05:10:12.639Z,1005.43
2017-12-20T05:12:06.282Z,1005.44
2017-12-20T05:13:06.509Z,1005.43
2017-12-20T05:14:58.519Z,1005.38
2017-12-20T05:15:58.708Z,1005.37
2017-12-20T05:17:51.883Z,1005.42
2017-12-20T05:18:51.320Z,1005.44
2017-12-20T05:20:44.154Z,1005.36
2017-12-20T05:21:45.773Z,1005.35
2017-12-20T05:23:37.752Z,1005.42
2017-12-20T05:24:37.486Z,1005.37
2017-12-20T05:26:30.376Z,1005.39
2017-12-20T05:27:30.917Z,1005.40
2017-12-20T05:29:23.069Z,1005.43
2017-12-20T05:30:23.734Z,1005.46
2017-12-20T05:32:16.817Z,1005.47
2017-12-20T05:33:17.969Z,1005.48
2017-12-20T05:35:10.973Z,1005.47
2017-12-20T05:36:09.977Z,1005.51
2017-12-20T05:38:03.994Z,1005.60
2017-12-20T05:39:04.030Z,1005.60
2017-12-20T05:40:56.470Z,1005.59
2017-12-20T05:41:56.530Z,1005.57
2017-12-20T05:43:51.183Z,1005.53
2017-12-20T05:44:50.819Z,1005.54
2017-12-20T05:46:44.836Z,1005.52
2017-12-20T05:47:45.386Z,1005.49
2017-12-20T05:49:39.718Z,1005.51
2017-12-20T05:50:39.620Z,1005.52
2017-12-20T05:52:32.667Z,1005.53
2017-12-20T05:53:33.255Z,1005.54
2017-12-20T05:55:25.189Z,1005.63
2017-12-20T05:56:25.581Z,1005.63
2017-12-20T05:58:18.902Z,1005.68
2017-12-20T06:00:39.525Z,1005.74
2017-12-20T06:01:40.894Z,1005.75
2017-12-20T06:03:32.433Z,1005.79
2017-12-20T06:04:32.594Z,1005.77
2017-12-20T06:06:25.752Z,1005.78
2017-12-20T06:07:26.489Z,1005.78
2017-12-20T06:09:19.183Z,1005.77
2017-12-20T06:10:19.422Z,1005.74
2017-12-20T06:12:12.691Z,1005.76
2017-12-20T06:13:13.031Z,1005.72
2017-12-20T06:15:04.678Z,1005.73
2017-12-20T06:16:06.063Z,1005.73
2017-12-20T06:17:57.769Z,1005.74
2017-12-20T06:18:58.191Z,1005.72
2017-12-20T06:20:51.270Z,1005.72
2017-12-20T06:21:51.878Z,1005.70
2017-12-20T06:23:44.276Z,1005.73
2017-12-20T06:24:44.143Z,1005.77
2017-12-20T06:26:36.528Z,1005.79
2017-12-20T06:27:37.956Z,1005.85
2017-12-20T06:29:29.848Z,1005.85
2017-12-20T06:30:33.033Z,1005.84
2017-12-20T06:32:22.180Z,1005.88
2017-12-20T06:33:22.614Z,1005.86
2017-12-20T06:35:15.381Z,1005.88
2017-12-20T06:36:16.523Z,1005.91
2017-12-20T06:38:09.042Z,1005.99
2017-12-20T06:41:01.958Z,1006.09
2017-12-20T06:42:02.686Z,1006.06
2017-12-20T06:43:54.979Z,1006.14
2017-12-20T06:44:55.297Z,1006.12
2017-12-20T06:46:47.574Z,1006.11
2017-12-20T06:47:47.956Z,1006.13
2017-12-20T06:49:40.290Z,1006.13
2017-12-20T06:50:40.703Z,1006.13
2017-12-20T06:52:34.421Z,1006.10
2017-12-20T06:53:33.923Z,1006.13
2017-12-20T06:55:26.066Z,1006.05
2017-12-20T06:56:26.175Z,1006.02
2017-12-20T06:58:18.755Z,1006.02
2017-12-20T06:59:18.449Z,1006.01
2017-12-20T07:01:11.199Z,1005.97
2017-12-20T07:02:11.652Z,1006.01
2017-12-20T07:04:05.678Z,1005.96
2017-12-20T07:05:05.310Z,1006.01
2017-12-20T07:06:57.970Z,1005.96
2017-12-20T07:07:58.621Z,1005.93
2017-12-20T07:09:51.734Z,1005.87
2017-12-20T07:10:51.427Z,1005.87
2017-12-20T07:12:44.800Z,1005.90
2017-12-20T07:13:44.665Z,1005.89
2017-12-20T07:15:37.093Z,1005.91
2017-12-20T07:16:36.006Z,1005.92
2017-12-20T07:18:30.455Z,1005.89
2017-12-20T07:19:29.769Z,1005.89
2017-12-20T07:21:21.979Z,1005.85
2017-12-20T07:22:22.951Z,1005.84
2017-12-20T07:24:15.414Z,1005.87
2017-12-20T07:25:16.173Z,1005.86
2017-12-20T07:27:08.183Z,1005.85
2017-12-20T07:28:09.630Z,1005.88
2017-12-20T07:30:01.030Z,1005.85
2017-12-20T07:31:01.862Z,1005.91
2017-12-20T07:32:54.739Z,1005.92
2017-12-20T07:33:56.469Z,1005.96
2017-12-20T07:35:48.432Z,1005.92
2017-12-20T07:36:48.316Z,1005.97
2017-12-20T07:38:40.486Z,1006.03
2017-12-20T07:39:41.669Z,1005.99
2017-12-20T07:41:33.479Z,1006.07
2017-12-20T07:42:33.711Z,1006.13
2017-12-20T07:44:26.120Z,1006.11
2017-12-20T07:45:27.141Z,1006.08
2017-12-20T07:47:19.553Z,1006.11
2017-12-20T07:48:19.953Z,1006.13
2017-12-20T07:50:11.974Z,1006.10
2017-12-20T07:51:13.577Z,1006.06
2017-12-20T07:53:04.584Z,1006.07
2017-12-20T07:54:06.395Z,1006.10
2017-12-20T07:55:58.711Z,1006.18
2017-12-20T07:56:59.262Z,1006.23
2017-12-20T07:58:50.969Z,1006.22
2017-12-20T07:59:52.160Z,1006.24
2017-12-20T08:01:43.299Z,1006.25
2017-12-20T08:02:43.548Z,1006.26
2017-12-20T08:04:37.622Z,1006.32
2017-12-20T08:05:37.931Z,1006.31
2017-12-20T08:07:29.776Z,1006.36
2017-12-20T08:08:30.750Z,1006.40
2017-12-20T08:10:23.651Z,1006.39
2017-12-20T08:11:24.410Z,1006.38
2017-12-20T08:13:17.219Z,1006.45
2017-12-20T08:14:17.035Z,1006.49
2017-12-20T08:16:09.438Z,1006.50
2017-12-20T08:17:10.743Z,1006.53
2017-12-20T08:19:03.432Z,1006.56
2017-12-20T08:20:03.591Z,1006.62
2017-12-20T08:21:55.702Z,1006.62
2017-12-20T08:22:57.168Z,1006.61
2017-12-20T08:24:49.096Z,1006.56
2017-12-20T08:25:50.342Z,1006.56
2017-12-20T08:27:41.334Z,1006.58
2017-12-20T08:28:43.811Z,1006.63
2017-12-20T08:30:34.552Z,1006.63
2017-12-20T08:31:35.202Z,1006.64
2017-12-20T08:33:27.011Z,1006.65
2017-12-20T08:34:27.708Z,1006.62
2017-12-20T08:36:21.583Z,1006.69
2017-12-20T08:37:22.787Z,1006.68
2017-12-20T08:39:14.893Z,1006.75
2017-12-20T08:40:15.872Z,1006.74
2017-12-20T08:42:07.475Z,1006.70
2017-12-20T08:43:06.980Z,1006.71
2017-12-20T08:45:02.081Z,1006.70
2017-12-20T08:46:02.485Z,1006.67
2017-12-20T08:47:54.621Z,1006.68
2017-12-20T08:48:55.197Z,1006.68
2017-12-20T08:50:47.380Z,1006.66
2017-12-20T08:51:47.386Z,1006.70
2017-12-20T08:53:40.459Z,1006.77
2017-12-20T08:54:40.361Z,1006.79
2017-12-20T08:56:34.192Z,1006.74
2017-12-20T08:57:34.100Z,1006.73
2017-12-20T08:59:26.683Z,1006.72
2017-12-20T09:00:27.783Z,1006.72
2017-12-20T09:02:20.065Z,1006.72
2017-12-20T09:03:20.695Z,1006.72
2017-12-20T09:05:12.129Z,1006.75
2017-12-20T09:06:12.699Z,1006.70
2017-12-20T09:08:05.227Z,1006.71
2017-12-20T09:09:06.051Z,1006.70
2017-12-20T09:10:58.393Z,1006.75
2017-12-20T09:11:58.459Z,1006.77
2017-12-20T09:13:51.025Z,1006.75
2017-12-20T09:14:50.945Z,1006.73
2017-12-20T09:16:43.871Z,1006.75
2017-12-20T09:17:43.656Z,1006.69
2017-12-20T09:19:37.609Z,1006.68
2017-12-20T09:20:37.721Z,1006.69
2017-12-20T09:22:32.079Z,1006.66
2017-12-20T09:23:32.386Z,1006.66
2017-12-20T09:25:24.751Z,1006.62
2017-12-20T09:26:24.654Z,1006.57
2017-12-20T09:28:18.421Z,1006.62
2017-12-20T09:29:18.024Z,1006.64
2017-12-20T09:31:15.188Z,1006.65
2017-12-20T09:32:15.541Z,1006.64
2017-12-20T09:34:07.187Z,1006.63
2017-12-20T09:35:09.109Z,1006.66
2017-12-20T09:36:59.181Z,1006.62
2017-12-20T09:38:00.079Z,1006.62
2017-12-20T09:39:52.369Z,1006.67
2017-12-20T09:40:52.667Z,1006.64
2017-12-20T09:42:46.548Z,1006.63
2017-12-20T09:43:47.486Z,1006.66
2017-12-20T09:45:39.003Z,1006.66
2017-12-20T09:46:40.010Z,1006.65
2017-12-20T09:48:31.660Z,1006.63
2017-12-20T09:49:32.571Z,1006.66
2017-12-20T09:51:24.228Z,1006.68
2017-12-20T09:52:24.250Z,1006.72
2017-12-20T09:54:18.348Z,1006.69
2017-12-20T09:55:17.920Z,1006.70
2017-12-20T09:57:09.590Z,1006.66
2017-12-20T09:58:11.590Z,1006.68
2017-12-20T10:00:02.908Z,1006.62
2017-12-20T10:01:03.468Z,1006.56
2017-12-20T10:02:55.825Z,1006.65
2017-12-20T10:03:56.697Z,1006.62
2017-12-20T10:05:49.272Z,1006.59
2017-12-20T10:06:50.143Z,1006.56
2017-12-20T10:08:41.777Z,1006.59
2017-12-20T10:09:42.719Z,1006.57
2017-12-20T10:11:35.361Z,1006.52
2017-12-20T10:12:36.000Z,1006.55
2017-12-20T10:14:27.400Z,1006.56
2017-12-20T10:15:27.758Z,1006.52
2017-12-20T10:17:21.100Z,1006.49
2017-12-20T10:18:20.562Z,1006.49
2017-12-20T10:20:13.968Z,1006.46
2017-12-20T10:21:13.896Z,1006.47
2017-12-20T10:23:06.331Z,1006.45
2017-12-20T10:24:06.101Z,1006.46
2017-12-20T10:26:00.124Z,1006.39
2017-12-20T10:27:00.297Z,1006.39
2017-12-20T10:28:52.113Z,1006.41
2017-12-20T10:29:53.229Z,1006.36
2017-12-20T10:31:45.731Z,1006.38
2017-12-20T10:32:45.980Z,1006.37
2017-12-20T10:34:37.529Z,1006.40
2017-12-20T10:35:38.842Z,1006.37
2017-12-20T10:37:30.266Z,1006.36
2017-12-20T10:38:30.396Z,1006.32
2017-12-20T10:40:23.021Z,1006.27
2017-12-20T10:41:22.901Z,1006.28
2017-12-20T10:43:16.953Z,1006.28
2017-12-20T10:44:17.556Z,1006.25
2017-12-20T10:46:09.775Z,1006.26
2017-12-20T10:47:09.376Z,1006.22
2017-12-20T10:49:02.880Z,1006.24
2017-12-20T10:50:03.318Z,1006.25
2017-12-20T10:52:02.526Z,1006.27
2017-12-20T10:53:02.646Z,1006.21
2017-12-20T10:54:58.230Z,1006.21
2017-12-20T10:57:09.513Z,1006.23
2017-12-20T10:59:29.606Z,1006.22
2017-12-20T11:00:29.792Z,1006.26
2017-12-20T11:02:22.934Z,1006.27
2017-12-20T11:03:23.800Z,1006.22
2017-12-20T11:05:15.609Z,1006.22
2017-12-20T11:06:16.500Z,1006.23
2017-12-20T11:08:09.185Z,1006.23
2017-12-20T11:09:08.718Z,1006.25
2017-12-20T11:11:01.842Z,1006.27
2017-12-20T11:12:02.405Z,1006.23
2017-12-20T11:13:54.326Z,1006.19
2017-12-20T11:14:55.383Z,1006.18
2017-12-20T11:16:47.999Z,1006.20
2017-12-20T11:17:48.760Z,1006.19
2017-12-20T11:19:41.489Z,1006.24
2017-12-20T11:20:41.310Z,1006.22
2017-12-20T11:22:35.257Z,1006.21
2017-12-20T11:23:35.289Z,1006.23
2017-12-20T11:25:27.360Z,1006.23
2017-12-20T11:26:28.233Z,1006.20
2017-12-20T11:28:20.137Z,1006.16
2017-12-20T11:29:19.771Z,1006.16
2017-12-20T11:31:14.263Z,1006.20
2017-12-20T11:32:14.400Z,1006.20
2017-12-20T11:34:05.048Z,1006.17
2017-12-20T11:35:06.479Z,1006.23
2017-12-20T11:36:58.893Z,1006.20
2017-12-20T11:37:59.822Z,1006.21
2017-12-20T11:39:50.942Z,1006.20
2017-12-20T11:40:51.702Z,1006.13
2017-12-20T11:42:43.604Z,1006.16
2017-12-20T11:43:45.126Z,1006.17
2017-12-20T11:45:36.299Z,1006.16
2017-12-20T11:46:37.351Z,1006.15
2017-12-20T11:48:29.084Z,1006.08
2017-12-20T11:49:29.981Z,1006.07
2017-12-20T11:51:22.299Z,1006.04
2017-12-20T11:52:22.166Z,1006.03
2017-12-20T11:54:14.907Z,1005.98
2017-12-20T11:55:15.793Z,1006.01
2017-12-20T11:57:07.361Z,1005.97
2017-12-20T11:58:07.708Z,1006.00
2017-12-20T12:00:00.592Z,1006.02
2017-12-20T12:01:00.610Z,1006.05
2017-12-20T12:02:53.626Z,1006.06
2017-12-20T12:03:53.352Z,1006.13
2017-12-20T12:05:46.036Z,1006.10
2017-12-20T12:06:46.039Z,1006.12
2017-12-20T12:08:39.160Z,1006.10
2017-12-20T12:09:38.083Z,1006.11
2017-12-20T12:11:32.195Z,1006.02
2017-12-20T12:12:31.785Z,1006.00
2017-12-20T12:14:23.772Z,1006.08
2017-12-20T12:15:24.506Z,1006.07
2017-12-20T12:17:16.320Z,1006.06
2017-12-20T12:18:17.087Z,1006.10
2017-12-20T12:20:09.022Z,1006.08
2017-12-20T12:21:10.417Z,1006.07
2017-12-20T12:23:01.891Z,1006.09
2017-12-20T12:24:03.160Z,1006.07
2017-12-20T12:25:56.408Z,1006.08
2017-12-20T12:26:55.732Z,1006.11
2017-12-20T12:28:50.848Z,1006.10
2017-12-20T12:29:50.379Z,1006.12
2017-12-20T12:31:42.164Z,1006.13
2017-12-20T12:32:44.066Z,1006.07
2017-12-20T12:34:35.457Z,1006.12
2017-12-20T12:35:36.415Z,1006.13
2017-12-20T12:37:30.353Z,1006.11
2017-12-20T12:38:29.535Z,1006.13
2017-12-20T12:40:26.833Z,1006.17
2017-12-20T12:43:18.149Z,1006.18
2017-12-20T12:44:17.622Z,1006.16
2017-12-20T12:46:08.191Z,1006.25
2017-12-20T12:47:10.210Z,1006.26
2017-12-20T12:49:00.138Z,1006.20
2017-12-20T12:50:00.337Z,1006.16
2017-12-20T12:51:54.412Z,1006.19
2017-12-20T12:52:54.518Z,1006.21
2017-12-20T12:54:46.895Z,1006.13
2017-12-20T12:55:46.546Z,1006.14
2017-12-20T12:57:40.799Z,1006.11
2017-12-20T12:58:41.312Z,1006.10
2017-12-20T13:00:33.678Z,1006.08
2017-12-20T13:01:33.887Z,1006.08
2017-12-20T13:03:26.440Z,1006.09
2017-12-20T13:04:27.341Z,1006.06
2017-12-20T13:06:19.237Z,1006.04
2017-12-20T13:07:18.861Z,1006.06
2017-12-20T13:09:12.124Z,1006.08
2017-12-20T13:10:12.423Z,1006.03
2017-12-20T13:12:05.555Z,1006.00
2017-12-20T13:13:04.572Z,1006.02
2017-12-20T13:14:57.673Z,1006.07
2017-12-20T13:15:58.192Z,1006.04
2017-12-20T13:17:50.768Z,1006.08
2017-12-20T13:18:50.768Z,1006.04
2017-12-20T13:20:42.911Z,1006.05
2017-12-20T13:21:43.571Z,1006.06
2017-12-20T13:23:35.807Z,1006.06
2017-12-20T13:24:37.888Z,1006.08
2017-12-20T13:26:30.040Z,1006.04
2017-12-20T13:27:30.387Z,1006.05
2017-12-20T13:29:21.806Z,1006.04
2017-12-20T13:30:22.252Z,1005.99
2017-12-20T13:32:14.935Z,1006.02
2017-12-20T13:33:14.911Z,1006.04
2017-12-20T13:35:06.572Z,1006.05
2017-12-20T13:36:08.120Z,1006.05
2017-12-20T13:38:00.233Z,1006.04
2017-12-20T13:38:59.712Z,1006.02
2017-12-20T13:40:52.478Z,1006.01
2017-12-20T13:41:52.351Z,1005.99
2017-12-20T13:43:44.456Z,1005.98
2017-12-20T13:44:44.917Z,1006.02
2017-12-20T13:46:37.370Z,1006.04
2017-12-20T13:47:37.129Z,1006.05
2017-12-20T13:49:30.076Z,1006.08
2017-12-20T13:50:30.277Z,1006.12
2017-12-20T13:52:22.480Z,1006.19
2017-12-20T13:53:23.037Z,1006.22
2017-12-20T13:55:15.170Z,1006.22
2017-12-20T13:56:16.058Z,1006.22
2017-12-20T13:58:08.073Z,1006.22
2017-12-20T13:59:08.830Z,1006.21
2017-12-20T14:01:03.879Z,1006.21
2017-12-20T14:02:03.888Z,1006.23
2017-12-20T14:03:56.545Z,1006.23
2017-12-20T14:04:56.011Z,1006.23
2017-12-20T14:06:51.489Z,1006.28
2017-12-20T14:07:52.673Z,1006.28
2017-12-20T14:09:44.113Z,1006.27
2017-12-20T14:10:44.342Z,1006.24
2017-12-20T14:12:37.164Z,1006.19
2017-12-20T14:13:36.696Z,1006.22
2017-12-20T14:15:29.976Z,1006.22
2017-12-20T14:16:30.880Z,1006.21
2017-12-20T14:18:23.928Z,1006.24
2017-12-20T14:19:24.023Z,1006.25
2017-12-20T14:21:21.793Z,1006.27
2017-12-20T14:22:22.651Z,1006.25
2017-12-20T14:24:15.183Z,1006.22
2017-12-20T14:25:14.862Z,1006.22
2017-12-20T14:27:09.126Z,1006.16
2017-12-20T14:28:10.171Z,1006.18
2017-12-20T14:30:01.920Z,1006.15
2017-12-20T14:31:02.245Z,1006.18
2017-12-20T14:32:54.832Z,1006.10
2017-12-20T14:33:54.528Z,1006.13
2017-12-20T14:35:49.100Z,1006.17
2017-12-20T14:36:47.573Z,1006.17
2017-12-20T14:38:39.433Z,1006.15
2017-12-20T14:39:39.506Z,1006.20
2017-12-20T14:41:32.981Z,1006.21
2017-12-20T14:42:33.549Z,1006.18
2017-12-20T14:44:24.850Z,1006.22
2017-12-20T14:45:25.810Z,1006.24
2017-12-20T14:47:18.326Z,1006.24
2017-12-20T14:48:18.837Z,1006.27
2017-12-20T14:50:10.487Z,1006.23
2017-12-20T14:51:11.080Z,1006.20
2017-12-20T14:53:03.347Z,1006.23
2017-12-20T14:54:03.856Z,1006.21
2017-12-20T14:55:56.039Z,1006.25
2017-12-20T14:56:57.506Z,1006.26
2017-12-20T14:58:48.589Z,1006.28
2017-12-20T14:59:48.957Z,1006.26
2017-12-20T15:01:42.904Z,1006.23
2017-12-20T15:02:44.070Z,1006.21
2017-12-20T15:04:35.853Z,1006.22
2017-12-20T15:05:36.354Z,1006.21
2017-12-20T15:07:29.285Z,1006.23
2017-12-20T15:08:29.000Z,1006.27
2017-12-20T15:10:23.671Z,1006.27
2017-12-20T15:11:20.523Z,1006.28
2017-12-20T15:13:13.811Z,1006.33
2017-12-20T15:14:14.761Z,1006.33
2017-12-20T15:16:08.016Z,1006.36
2017-12-20T15:17:08.073Z,1006.39
2017-12-20T15:19:00.761Z,1006.41
2017-12-20T15:20:00.947Z,1006.43
2017-12-20T15:21:52.622Z,1006.43
2017-12-20T15:22:52.273Z,1006.42
2017-12-20T15:24:45.590Z,1006.47
2017-12-20T15:25:46.825Z,1006.47
2017-12-20T15:27:37.837Z,1006.48
2017-12-20T15:28:38.579Z,1006.49
2017-12-20T15:30:30.245Z,1006.47
2017-12-20T15:31:32.006Z,1006.43
2017-12-20T15:33:23.589Z,1006.40
2017-12-20T15:34:24.114Z,1006.39
2017-12-20T15:36:16.219Z,1006.38
2017-12-20T15:37:16.761Z,1006.41
2017-12-20T15:39:09.368Z,1006.45
2017-12-20T15:40:12.776Z,1006.41
2017-12-20T15:42:01.411Z,1006.45
2017-12-20T15:43:03.021Z,1006.42
2017-12-20T15:44:55.532Z,1006.43
2017-12-20T15:45:55.976Z,1006.40
2017-12-20T15:47:47.557Z,1006.38
2017-12-20T15:48:49.010Z,1006.35
2017-12-20T15:50:41.392Z,1006.31
2017-12-20T15:51:40.823Z,1006.33
2017-12-20T15:53:48.194Z,1006.30
2017-12-20T15:54:49.136Z,1006.29
2017-12-20T15:56:40.238Z,1006.32
2017-12-20T15:57:41.530Z,1006.26
2017-12-20T15:59:33.680Z,1006.24
2017-12-20T16:00:35.823Z,1006.22
2017-12-20T16:02:28.937Z,1006.15
2017-12-20T16:03:27.835Z,1006.18
2017-12-20T16:05:21.368Z,1006.09
2017-12-20T16:06:21.436Z,1006.04
2017-12-20T16:08:15.310Z,1005.99
2017-12-20T16:09:15.146Z,1005.91
2017-12-20T16:11:07.583Z,1005.90
2017-12-20T16:12:08.270Z,1005.92
2017-12-20T16:14:04.292Z,1005.91
2017-12-20T16:15:02.155Z,1005.89
2017-12-20T16:16:52.232Z,1005.91
2017-12-20T16:17:55.256Z,1006.05
2017-12-20T16:19:46.742Z,1006.00
2017-12-20T16:20:45.985Z,1006.02
2017-12-20T16:22:38.746Z,1006.01
2017-12-20T16:23:39.724Z,1006.06
2017-12-20T16:25:31.790Z,1006.13
2017-12-20T16:26:32.583Z,1006.12
2017-12-20T16:28:24.805Z,1006.13
2017-12-20T16:29:25.260Z,1006.11
2017-12-20T16:31:19.065Z,1006.20
2017-12-20T16:32:20.661Z,1006.22
2017-12-20T16:34:11.747Z,1006.27
2017-12-20T16:35:12.075Z,1006.28
2017-12-20T16:37:07.409Z,1006.30
2017-12-20T16:38:06.326Z,1006.25
2017-12-20T16:40:00.262Z,1006.24
2017-12-20T16:41:00.037Z,1006.25
2017-12-20T16:42:54.516Z,1006.26
2017-12-20T16:43:53.297Z,1006.30
2017-12-20T16:45:46.964Z,1006.29
2017-12-20T16:46:48.442Z,1006.27
2017-12-20T16:48:41.762Z,1006.28
2017-12-20T16:49:40.042Z,1006.29
2017-12-20T16:51:34.887Z,1006.27
2017-12-20T16:52:34.533Z,1006.20
2017-12-20T16:54:26.352Z,1006.23
2017-12-20T16:55:28.340Z,1006.23
2017-12-20T16:57:19.333Z,1006.21
2017-12-20T16:58:20.127Z,1006.23
2017-12-20T17:00:12.542Z,1006.23
2017-12-20T17:01:12.783Z,1006.29
2017-12-20T17:03:05.718Z,1006.33
2017-12-20T17:04:05.429Z,1006.26
2017-12-20T17:06:01.386Z,1006.26
2017-12-20T17:06:59.502Z,1006.29
2017-12-20T17:09:03.665Z,1006.27
2017-12-20T17:09:52.874Z,1006.28
2017-12-20T17:11:44.353Z,1006.34
2017-12-20T17:12:44.592Z,1006.35
2017-12-20T17:14:37.347Z,1006.44
2017-12-20T17:15:37.808Z,1006.39
2017-12-20T17:17:30.792Z,1006.37
2017-12-20T17:18:31.121Z,1006.32
2017-12-20T17:20:24.490Z,1006.34
2017-12-20T17:21:23.976Z,1006.37
2017-12-20T17:23:17.739Z,1006.44
2017-12-20T17:24:18.134Z,1006.47
2017-12-20T17:26:12.782Z,1006.48
2017-12-20T17:27:11.249Z,1006.45
2017-12-20T17:29:05.881Z,1006.40
2017-12-20T17:30:05.740Z,1006.41
2017-12-20T17:31:57.495Z,1006.45
2017-12-20T17:32:59.712Z,1006.49
2017-12-20T17:34:53.720Z,1006.50
2017-12-20T17:35:54.269Z,1006.46
2017-12-20T17:37:47.540Z,1006.50